sensor_id;sensor_type;location;lat;lon;timestamp;temperature;humidity
29547;DHT22;40782;47.264;11.330;2023-06-24T00:00:50;17.30;99.90
29547;DHT22;40782;47.264;11.330;2023-06-24T00:03:17;17.30;99.90
29547;DHT22;40782;47.264;11.330;2023-06-24T00:05:44;17.20;99.90
29547;DHT22;40782;47.264;11.330;2023-06-24T00:08:16;17.10;99.90
29547;DHT22;40782;47.264;11.330;2023-06-24T00:10:44;17.00;99.90
29547;DHT22;40782;47.264;11.330;2023-06-24T00:13:11;17.10;99.90
29547;DHT22;40782;47.264;11.330;2023-06-24T00:15:38;17.00;99.90
29547;DHT22;40782;47.264;11.330;2023-06-24T00:18:08;17.10;99.90
29547;DHT22;40782;47.264;11.330;2023-06-24T00:20:35;17.20;99.90
29547;DHT22;40782;47.264;11.330;2023-06-24T00:23:02;17.20;99.90
29547;DHT22;40782;47.264;11.330;2023-06-24T00:25:30;17.20;99.90
29547;DHT22;40782;47.264;11.330;2023-06-24T00:27:57;17.10;99.90
29547;DHT22;40782;47.264;11.330;2023-06-24T00:30:25;16.90;99.90
29547;DHT22;40782;47.264;11.330;2023-06-24T00:32:52;16.90;99.90
29547;DHT22;40782;47.264;11.330;2023-06-24T00:35:19;16.90;99.90
29547;DHT22;40782;47.264;11.330;2023-06-24T00:37:46;16.90;99.90
29547;DHT22;40782;47.264;11.330;2023-06-24T00:40:13;16.90;99.90
29547;DHT22;40782;47.264;11.330;2023-06-24T00:42:42;16.90;99.90
29547;DHT22;40782;47.264;11.330;2023-06-24T00:45:09;16.90;99.90
29547;DHT22;40782;47.264;11.330;2023-06-24T00:47:37;16.90;99.90
29547;DHT22;40782;47.264;11.330;2023-06-24T00:50:04;17.00;99.90
29547;DHT22;40782;47.264;11.330;2023-06-24T00:52:31;17.00;99.90
29547;DHT22;40782;47.264;11.330;2023-06-24T00:54:59;17.00;99.90
29547;DHT22;40782;47.264;11.330;2023-06-24T00:57:28;16.90;99.90
29547;DHT22;40782;47.264;11.330;2023-06-24T00:59:56;16.90;99.90
29547;DHT22;40782;47.264;11.330;2023-06-24T01:02:25;16.80;99.90
29547;DHT22;40782;47.264;11.330;2023-06-24T01:04:53;16.60;99.90
29547;DHT22;40782;47.264;11.330;2023-06-24T01:07:20;16.50;99.90
29547;DHT22;40782;47.264;11.330;2023-06-24T01:09:47;16.50;99.90
29547;DHT22;40782;47.264;11.330;2023-06-24T01:12:15;16.50;99.90
29547;DHT22;40782;47.264;11.330;2023-06-24T01:14:41;16.40;99.90
29547;DHT22;40782;47.264;11.330;2023-06-24T01:17:11;16.40;99.90
29547;DHT22;40782;47.264;11.330;2023-06-24T01:19:45;16.30;99.90
29547;DHT22;40782;47.264;11.330;2023-06-24T01:22:18;16.40;99.90
29547;DHT22;40782;47.264;11.330;2023-06-24T01:24:48;16.30;99.90
29547;DHT22;40782;47.264;11.330;2023-06-24T01:27:26;16.20;99.90
29547;DHT22;40782;47.264;11.330;2023-06-24T01:30:10;16.20;99.90
29547;DHT22;40782;47.264;11.330;2023-06-24T01:32:43;16.30;99.90
29547;DHT22;40782;47.264;11.330;2023-06-24T01:35:11;16.30;99.90
29547;DHT22;40782;47.264;11.330;2023-06-24T01:37:41;16.30;99.90
29547;DHT22;40782;47.264;11.330;2023-06-24T01:40:09;16.40;99.90
29547;DHT22;40782;47.264;11.330;2023-06-24T01:42:37;16.30;99.90
29547;DHT22;40782;47.264;11.330;2023-06-24T01:45:05;16.30;99.90
29547;DHT22;40782;47.264;11.330;2023-06-24T01:47:32;16.30;99.90
29547;DHT22;40782;47.264;11.330;2023-06-24T01:50:02;16.30;99.90
29547;DHT22;40782;47.264;11.330;2023-06-24T01:52:30;16.30;99.90
29547;DHT22;40782;47.264;11.330;2023-06-24T01:54:58;16.20;99.90
29547;DHT22;40782;47.264;11.330;2023-06-24T01:57:25;16.10;99.90
29547;DHT22;40782;47.264;11.330;2023-06-24T01:59:54;16.10;99.90
29547;DHT22;40782;47.264;11.330;2023-06-24T02:02:22;16.10;99.90
29547;DHT22;40782;47.264;11.330;2023-06-24T02:04:51;16.00;99.90
29547;DHT22;40782;47.264;11.330;2023-06-24T02:07:20;16.00;99.90
29547;DHT22;40782;47.264;11.330;2023-06-24T02:09:47;16.00;99.90
29547;DHT22;40782;47.264;11.330;2023-06-24T02:12:14;16.00;99.90
29547;DHT22;40782;47.264;11.330;2023-06-24T02:14:42;16.00;99.90
29547;DHT22;40782;47.264;11.330;2023-06-24T02:17:10;16.00;99.90
29547;DHT22;40782;47.264;11.330;2023-06-24T02:19:38;16.10;99.90
29547;DHT22;40782;47.264;11.330;2023-06-24T02:22:05;16.00;99.90
29547;DHT22;40782;47.264;11.330;2023-06-24T02:24:36;16.10;99.90
29547;DHT22;40782;47.264;11.330;2023-06-24T02:27:05;16.00;99.90
29547;DHT22;40782;47.264;11.330;2023-06-24T02:29:32;16.00;99.90
29547;DHT22;40782;47.264;11.330;2023-06-24T02:32:00;16.10;99.90
29547;DHT22;40782;47.264;11.330;2023-06-24T02:34:27;16.10;99.90
29547;DHT22;40782;47.264;11.330;2023-06-24T02:36:54;16.10;99.90
29547;DHT22;40782;47.264;11.330;2023-06-24T02:39:21;16.10;99.90
29547;DHT22;40782;47.264;11.330;2023-06-24T02:41:50;16.00;99.90
29547;DHT22;40782;47.264;11.330;2023-06-24T02:44:17;16.00;99.90
29547;DHT22;40782;47.264;11.330;2023-06-24T02:46:43;16.10;99.90
29547;DHT22;40782;47.264;11.330;2023-06-24T02:49:12;16.00;99.90
29547;DHT22;40782;47.264;11.330;2023-06-24T02:51:39;16.00;99.90
29547;DHT22;40782;47.264;11.330;2023-06-24T02:54:06;15.90;99.90
29547;DHT22;40782;47.264;11.330;2023-06-24T02:56:34;15.90;99.90
29547;DHT22;40782;47.264;11.330;2023-06-24T02:59:03;16.00;99.90
29547;DHT22;40782;47.264;11.330;2023-06-24T03:01:29;16.00;99.90
29547;DHT22;40782;47.264;11.330;2023-06-24T03:03:59;16.00;99.90
29547;DHT22;40782;47.264;11.330;2023-06-24T03:06:26;15.90;99.90
29547;DHT22;40782;47.264;11.330;2023-06-24T03:08:53;15.90;99.90
29547;DHT22;40782;47.264;11.330;2023-06-24T03:11:20;15.90;99.90
29547;DHT22;40782;47.264;11.330;2023-06-24T03:13:47;16.00;99.90
29547;DHT22;40782;47.264;11.330;2023-06-24T03:16:16;16.00;99.90
29547;DHT22;40782;47.264;11.330;2023-06-24T03:18:42;16.00;99.90
29547;DHT22;40782;47.264;11.330;2023-06-24T03:21:09;16.00;99.90
29547;DHT22;40782;47.264;11.330;2023-06-24T03:23:36;16.00;99.90
29547;DHT22;40782;47.264;11.330;2023-06-24T03:26:05;16.00;99.90
29547;DHT22;40782;47.264;11.330;2023-06-24T03:28:34;15.90;99.90
29547;DHT22;40782;47.264;11.330;2023-06-24T03:31:01;15.90;99.90
29547;DHT22;40782;47.264;11.330;2023-06-24T03:33:29;15.80;99.90
29547;DHT22;40782;47.264;11.330;2023-06-24T03:35:56;15.80;99.90
29547;DHT22;40782;47.264;11.330;2023-06-24T03:38:23;15.80;99.90
29547;DHT22;40782;47.264;11.330;2023-06-24T03:40:49;15.80;99.90
29547;DHT22;40782;47.264;11.330;2023-06-24T03:43:16;15.70;99.90
29547;DHT22;40782;47.264;11.330;2023-06-24T03:45:43;15.70;99.90
29547;DHT22;40782;47.264;11.330;2023-06-24T03:48:10;15.80;99.90
29547;DHT22;40782;47.264;11.330;2023-06-24T03:50:38;15.80;99.90
29547;DHT22;40782;47.264;11.330;2023-06-24T03:53:05;15.90;99.90
29547;DHT22;40782;47.264;11.330;2023-06-24T03:55:32;15.90;99.90
29547;DHT22;40782;47.264;11.330;2023-06-24T03:57:59;16.00;99.90
29547;DHT22;40782;47.264;11.330;2023-06-24T04:00:26;15.90;99.90
29547;DHT22;40782;47.264;11.330;2023-06-24T04:02:53;15.90;99.90
29547;DHT22;40782;47.264;11.330;2023-06-24T04:05:20;15.80;99.90
29547;DHT22;40782;47.264;11.330;2023-06-24T04:07:49;15.70;99.90
29547;DHT22;40782;47.264;11.330;2023-06-24T04:10:17;15.70;99.90
29547;DHT22;40782;47.264;11.330;2023-06-24T04:12:44;15.80;99.90
29547;DHT22;40782;47.264;11.330;2023-06-24T04:15:11;15.90;99.90
29547;DHT22;40782;47.264;11.330;2023-06-24T04:17:38;16.00;99.90
29547;DHT22;40782;47.264;11.330;2023-06-24T04:20:05;16.00;99.90
29547;DHT22;40782;47.264;11.330;2023-06-24T04:22:34;16.00;99.90
29547;DHT22;40782;47.264;11.330;2023-06-24T04:25:02;16.00;99.90
29547;DHT22;40782;47.264;11.330;2023-06-24T04:27:29;16.00;99.90
29547;DHT22;40782;47.264;11.330;2023-06-24T04:29:56;16.00;99.90
29547;DHT22;40782;47.264;11.330;2023-06-24T04:32:23;16.00;99.90
29547;DHT22;40782;47.264;11.330;2023-06-24T04:34:50;16.00;99.90
29547;DHT22;40782;47.264;11.330;2023-06-24T04:37:16;16.00;99.90
29547;DHT22;40782;47.264;11.330;2023-06-24T04:39:43;16.10;99.90
29547;DHT22;40782;47.264;11.330;2023-06-24T04:42:12;16.10;99.90
29547;DHT22;40782;47.264;11.330;2023-06-24T04:44:40;16.10;99.90
29547;DHT22;40782;47.264;11.330;2023-06-24T04:47:07;16.00;99.90
29547;DHT22;40782;47.264;11.330;2023-06-24T04:49:34;16.00;99.90
29547;DHT22;40782;47.264;11.330;2023-06-24T04:52:00;16.00;99.90
29547;DHT22;40782;47.264;11.330;2023-06-24T04:54:28;16.00;99.90
29547;DHT22;40782;47.264;11.330;2023-06-24T04:56:55;16.10;99.90
29547;DHT22;40782;47.264;11.330;2023-06-24T04:59:24;16.10;99.90
29547;DHT22;40782;47.264;11.330;2023-06-24T05:01:51;16.10;99.90
29547;DHT22;40782;47.264;11.330;2023-06-24T05:04:18;16.10;99.90
29547;DHT22;40782;47.264;11.330;2023-06-24T05:06:45;16.10;99.90
29547;DHT22;40782;47.264;11.330;2023-06-24T05:09:12;16.10;99.90
29547;DHT22;40782;47.264;11.330;2023-06-24T05:11:39;16.10;99.90
29547;DHT22;40782;47.264;11.330;2023-06-24T05:14:06;16.10;99.90
29547;DHT22;40782;47.264;11.330;2023-06-24T05:16:34;16.10;99.90
29547;DHT22;40782;47.264;11.330;2023-06-24T05:19:01;16.10;99.90
29547;DHT22;40782;47.264;11.330;2023-06-24T05:21:28;16.00;99.90
29547;DHT22;40782;47.264;11.330;2023-06-24T05:23:55;16.00;99.90
29547;DHT22;40782;47.264;11.330;2023-06-24T05:26:22;16.10;99.90
29547;DHT22;40782;47.264;11.330;2023-06-24T05:28:49;16.10;99.90
29547;DHT22;40782;47.264;11.330;2023-06-24T05:31:16;16.20;99.90
29547;DHT22;40782;47.264;11.330;2023-06-24T05:33:45;16.30;99.90
29547;DHT22;40782;47.264;11.330;2023-06-24T05:36:13;16.30;99.90
29547;DHT22;40782;47.264;11.330;2023-06-24T05:38:40;16.30;99.90
29547;DHT22;40782;47.264;11.330;2023-06-24T05:41:07;16.40;99.90
29547;DHT22;40782;47.264;11.330;2023-06-24T05:43:34;16.40;99.90
29547;DHT22;40782;47.264;11.330;2023-06-24T05:46:01;16.40;99.90
29547;DHT22;40782;47.264;11.330;2023-06-24T05:48:28;16.40;99.90
29547;DHT22;40782;47.264;11.330;2023-06-24T05:50:57;16.50;99.90
29547;DHT22;40782;47.264;11.330;2023-06-24T05:53:24;16.50;99.90
29547;DHT22;40782;47.264;11.330;2023-06-24T05:55:51;16.50;99.90
29547;DHT22;40782;47.264;11.330;2023-06-24T05:58:18;16.50;99.90
29547;DHT22;40782;47.264;11.330;2023-06-24T06:00:45;16.50;99.90
29547;DHT22;40782;47.264;11.330;2023-06-24T06:03:12;16.50;99.90
29547;DHT22;40782;47.264;11.330;2023-06-24T06:05:39;16.60;99.90
29547;DHT22;40782;47.264;11.330;2023-06-24T06:08:07;16.60;99.90
29547;DHT22;40782;47.264;11.330;2023-06-24T06:10:34;16.70;99.90
29547;DHT22;40782;47.264;11.330;2023-06-24T06:13:02;16.80;99.90
29547;DHT22;40782;47.264;11.330;2023-06-24T06:15:29;16.70;99.90
29547;DHT22;40782;47.264;11.330;2023-06-24T06:17:56;16.90;99.90
29547;DHT22;40782;47.264;11.330;2023-06-24T06:20:23;17.00;99.90
29547;DHT22;40782;47.264;11.330;2023-06-24T06:22:51;17.00;99.90
29547;DHT22;40782;47.264;11.330;2023-06-24T06:25:19;17.20;99.90
29547;DHT22;40782;47.264;11.330;2023-06-24T06:27:46;17.30;99.90
29547;DHT22;40782;47.264;11.330;2023-06-24T06:30:13;17.30;99.90
29547;DHT22;40782;47.264;11.330;2023-06-24T06:32:41;17.40;99.90
29547;DHT22;40782;47.264;11.330;2023-06-24T06:35:08;17.50;99.90
29547;DHT22;40782;47.264;11.330;2023-06-24T06:37:35;17.70;99.90
29547;DHT22;40782;47.264;11.330;2023-06-24T06:40:02;17.70;99.90
29547;DHT22;40782;47.264;11.330;2023-06-24T06:42:30;17.70;99.90
29547;DHT22;40782;47.264;11.330;2023-06-24T06:44:57;17.80;99.90
29547;DHT22;40782;47.264;11.330;2023-06-24T06:47:24;17.80;99.90
29547;DHT22;40782;47.264;11.330;2023-06-24T06:49:52;17.90;99.90
29547;DHT22;40782;47.264;11.330;2023-06-24T06:52:19;18.00;99.90
29547;DHT22;40782;47.264;11.330;2023-06-24T06:54:46;18.10;99.90
29547;DHT22;40782;47.264;11.330;2023-06-24T06:57:13;18.20;99.90
29547;DHT22;40782;47.264;11.330;2023-06-24T06:59:41;18.20;99.90
29547;DHT22;40782;47.264;11.330;2023-06-24T07:02:08;18.30;99.90
29547;DHT22;40782;47.264;11.330;2023-06-24T07:04:35;18.40;99.90
29547;DHT22;40782;47.264;11.330;2023-06-24T07:07:02;18.40;99.90
29547;DHT22;40782;47.264;11.330;2023-06-24T07:09:29;18.50;99.90
29547;DHT22;40782;47.264;11.330;2023-06-24T07:11:56;18.60;99.90
29547;DHT22;40782;47.264;11.330;2023-06-24T07:14:23;18.70;99.90
29547;DHT22;40782;47.264;11.330;2023-06-24T07:16:52;18.70;99.90
29547;DHT22;40782;47.264;11.330;2023-06-24T07:19:19;18.80;99.90
29547;DHT22;40782;47.264;11.330;2023-06-24T07:21:46;18.90;99.90
29547;DHT22;40782;47.264;11.330;2023-06-24T07:24:13;19.00;99.90
29547;DHT22;40782;47.264;11.330;2023-06-24T07:26:40;19.00;99.90
29547;DHT22;40782;47.264;11.330;2023-06-24T07:29:07;19.10;99.90
29547;DHT22;40782;47.264;11.330;2023-06-24T07:31:34;19.20;99.90
29547;DHT22;40782;47.264;11.330;2023-06-24T07:34:03;19.30;99.90
29547;DHT22;40782;47.264;11.330;2023-06-24T07:36:30;19.30;99.90
29547;DHT22;40782;47.264;11.330;2023-06-24T07:38:57;19.30;99.90
29547;DHT22;40782;47.264;11.330;2023-06-24T07:41:24;19.30;99.90
29547;DHT22;40782;47.264;11.330;2023-06-24T07:43:51;19.40;99.90
29547;DHT22;40782;47.264;11.330;2023-06-24T07:46:18;19.40;99.90
29547;DHT22;40782;47.264;11.330;2023-06-24T07:48:45;19.40;99.90
29547;DHT22;40782;47.264;11.330;2023-06-24T07:51:14;19.50;99.90
29547;DHT22;40782;47.264;11.330;2023-06-24T07:53:41;19.50;99.90
29547;DHT22;40782;47.264;11.330;2023-06-24T07:56:08;19.50;99.90
29547;DHT22;40782;47.264;11.330;2023-06-24T07:58:35;19.70;99.90
29547;DHT22;40782;47.264;11.330;2023-06-24T08:01:03;19.70;99.90
29547;DHT22;40782;47.264;11.330;2023-06-24T08:03:31;19.70;99.90
29547;DHT22;40782;47.264;11.330;2023-06-24T08:05:58;19.80;99.90
29547;DHT22;40782;47.264;11.330;2023-06-24T08:08:26;19.80;99.90
29547;DHT22;40782;47.264;11.330;2023-06-24T08:10:53;19.70;99.90
29547;DHT22;40782;47.264;11.330;2023-06-24T08:13:20;19.90;99.90
29547;DHT22;40782;47.264;11.330;2023-06-24T08:15:47;19.80;99.90
29547;DHT22;40782;47.264;11.330;2023-06-24T08:18:14;19.90;99.90
29547;DHT22;40782;47.264;11.330;2023-06-24T08:20:42;20.00;99.90
29547;DHT22;40782;47.264;11.330;2023-06-24T08:23:09;20.00;99.90
29547;DHT22;40782;47.264;11.330;2023-06-24T08:25:37;20.10;99.90
29547;DHT22;40782;47.264;11.330;2023-06-24T08:28:04;20.20;99.90
29547;DHT22;40782;47.264;11.330;2023-06-24T08:30:31;20.30;99.90
29547;DHT22;40782;47.264;11.330;2023-06-24T08:32:58;20.30;99.90
29547;DHT22;40782;47.264;11.330;2023-06-24T08:35:25;20.30;99.90
29547;DHT22;40782;47.264;11.330;2023-06-24T08:37:52;20.40;99.90
29547;DHT22;40782;47.264;11.330;2023-06-24T08:40:19;20.40;99.90
29547;DHT22;40782;47.264;11.330;2023-06-24T08:42:48;20.40;99.90
29547;DHT22;40782;47.264;11.330;2023-06-24T08:45:15;20.50;99.90
29547;DHT22;40782;47.264;11.330;2023-06-24T08:47:42;20.60;99.90
29547;DHT22;40782;47.264;11.330;2023-06-24T08:50:11;20.80;99.90
29547;DHT22;40782;47.264;11.330;2023-06-24T08:52:38;20.70;99.90
29547;DHT22;40782;47.264;11.330;2023-06-24T08:55:09;20.80;99.90
29547;DHT22;40782;47.264;11.330;2023-06-24T08:57:37;20.90;99.90
29547;DHT22;40782;47.264;11.330;2023-06-24T09:00:06;20.90;99.90
29547;DHT22;40782;47.264;11.330;2023-06-24T09:02:35;20.90;99.90
29547;DHT22;40782;47.264;11.330;2023-06-24T09:05:04;21.00;99.90
29547;DHT22;40782;47.264;11.330;2023-06-24T09:07:31;21.10;99.90
29547;DHT22;40782;47.264;11.330;2023-06-24T09:09:58;21.20;99.90
29547;DHT22;40782;47.264;11.330;2023-06-24T09:12:26;21.20;99.90
29547;DHT22;40782;47.264;11.330;2023-06-24T09:14:53;21.20;99.90
29547;DHT22;40782;47.264;11.330;2023-06-24T09:17:21;21.40;99.90
29547;DHT22;40782;47.264;11.330;2023-06-24T09:19:48;21.50;99.90
29547;DHT22;40782;47.264;11.330;2023-06-24T09:22:15;21.60;99.90
29547;DHT22;40782;47.264;11.330;2023-06-24T09:24:44;21.80;99.90
29547;DHT22;40782;47.264;11.330;2023-06-24T09:27:13;21.90;99.90
29547;DHT22;40782;47.264;11.330;2023-06-24T09:29:41;22.00;99.80
29547;DHT22;40782;47.264;11.330;2023-06-24T09:32:08;22.10;99.10
29547;DHT22;40782;47.264;11.330;2023-06-24T09:34:37;22.30;99.90
29547;DHT22;40782;47.264;11.330;2023-06-24T09:37:05;22.50;98.40
29547;DHT22;40782;47.264;11.330;2023-06-24T09:39:35;22.70;99.20
29547;DHT22;40782;47.264;11.330;2023-06-24T09:42:05;22.70;96.80
29547;DHT22;40782;47.264;11.330;2023-06-24T09:44:33;22.90;94.30
29547;DHT22;40782;47.264;11.330;2023-06-24T09:47:00;22.70;93.90
29547;DHT22;40782;47.264;11.330;2023-06-24T09:49:28;22.60;93.60
29547;DHT22;40782;47.264;11.330;2023-06-24T09:51:57;22.70;94.70
29547;DHT22;40782;47.264;11.330;2023-06-24T09:54:24;23.00;95.30
29547;DHT22;40782;47.264;11.330;2023-06-24T09:56:52;23.20;94.20
29547;DHT22;40782;47.264;11.330;2023-06-24T09:59:20;23.40;94.00
29547;DHT22;40782;47.264;11.330;2023-06-24T10:01:51;23.70;93.50
29547;DHT22;40782;47.264;11.330;2023-06-24T10:04:19;23.80;92.40
29547;DHT22;40782;47.264;11.330;2023-06-24T10:06:47;23.70;91.40
29547;DHT22;40782;47.264;11.330;2023-06-24T10:09:16;23.60;89.80
29547;DHT22;40782;47.264;11.330;2023-06-24T10:11:45;23.60;90.10
29547;DHT22;40782;47.264;11.330;2023-06-24T10:14:13;23.60;85.50
29547;DHT22;40782;47.264;11.330;2023-06-24T10:16:40;23.40;87.50
29547;DHT22;40782;47.264;11.330;2023-06-24T10:19:07;23.50;88.20
29547;DHT22;40782;47.264;11.330;2023-06-24T10:21:44;23.60;87.90
29547;DHT22;40782;47.264;11.330;2023-06-24T10:24:11;23.60;86.60
29547;DHT22;40782;47.264;11.330;2023-06-24T10:26:40;23.60;84.20
29547;DHT22;40782;47.264;11.330;2023-06-24T10:29:10;23.60;82.30
29547;DHT22;40782;47.264;11.330;2023-06-24T10:31:53;23.60;84.60
29547;DHT22;40782;47.264;11.330;2023-06-24T10:34:28;23.60;80.90
29547;DHT22;40782;47.264;11.330;2023-06-24T10:36:56;23.60;81.00
29547;DHT22;40782;47.264;11.330;2023-06-24T10:39:36;23.60;83.90
29547;DHT22;40782;47.264;11.330;2023-06-24T10:44:53;23.80;81.40
29547;DHT22;40782;47.264;11.330;2023-06-24T10:47:21;24.00;79.50
29547;DHT22;40782;47.264;11.330;2023-06-24T10:49:50;24.00;79.40
29547;DHT22;40782;47.264;11.330;2023-06-24T10:52:18;24.00;75.90
29547;DHT22;40782;47.264;11.330;2023-06-24T10:54:46;24.00;77.50
29547;DHT22;40782;47.264;11.330;2023-06-24T10:57:13;24.00;75.90
29547;DHT22;40782;47.264;11.330;2023-06-24T10:59:40;24.00;76.00
29547;DHT22;40782;47.264;11.330;2023-06-24T11:02:12;24.10;76.30
29547;DHT22;40782;47.264;11.330;2023-06-24T11:04:43;24.60;78.50
29547;DHT22;40782;47.264;11.330;2023-06-24T11:07:10;25.00;75.40
29547;DHT22;40782;47.264;11.330;2023-06-24T11:09:38;25.20;72.80
29547;DHT22;40782;47.264;11.330;2023-06-24T11:12:05;25.10;71.30
29547;DHT22;40782;47.264;11.330;2023-06-24T11:14:33;25.10;69.90
29547;DHT22;40782;47.264;11.330;2023-06-24T11:17:00;25.10;69.00
29547;DHT22;40782;47.264;11.330;2023-06-24T11:19:29;25.30;70.60
29547;DHT22;40782;47.264;11.330;2023-06-24T11:22:01;25.60;74.30
29547;DHT22;40782;47.264;11.330;2023-06-24T11:24:28;25.90;72.40
29547;DHT22;40782;47.264;11.330;2023-06-24T11:26:55;26.10;69.10
29547;DHT22;40782;47.264;11.330;2023-06-24T11:29:23;26.20;70.40
29547;DHT22;40782;47.264;11.330;2023-06-24T11:31:50;26.40;70.70
29547;DHT22;40782;47.264;11.330;2023-06-24T11:34:17;26.30;72.40
29547;DHT22;40782;47.264;11.330;2023-06-24T11:36:46;26.10;70.10
29547;DHT22;40782;47.264;11.330;2023-06-24T11:39:21;26.00;72.00
29547;DHT22;40782;47.264;11.330;2023-06-24T11:41:48;25.90;70.00
29547;DHT22;40782;47.264;11.330;2023-06-24T11:44:17;25.90;72.90
29547;DHT22;40782;47.264;11.330;2023-06-24T11:46:44;25.80;69.40
29547;DHT22;40782;47.264;11.330;2023-06-24T11:49:11;25.80;69.10
29547;DHT22;40782;47.264;11.330;2023-06-24T11:51:46;25.50;66.30
29547;DHT22;40782;47.264;11.330;2023-06-24T11:54:14;25.50;69.50
29547;DHT22;40782;47.264;11.330;2023-06-24T11:56:42;25.50;67.00
29547;DHT22;40782;47.264;11.330;2023-06-24T11:59:15;25.50;70.00
29547;DHT22;40782;47.264;11.330;2023-06-24T12:01:43;25.40;64.40
29547;DHT22;40782;47.264;11.330;2023-06-24T12:04:10;25.30;66.40
29547;DHT22;40782;47.264;11.330;2023-06-24T12:06:37;25.20;67.00
29547;DHT22;40782;47.264;11.330;2023-06-24T12:09:09;25.20;66.10
29547;DHT22;40782;47.264;11.330;2023-06-24T12:11:36;25.20;69.80
29547;DHT22;40782;47.264;11.330;2023-06-24T12:14:04;25.50;71.10
29547;DHT22;40782;47.264;11.330;2023-06-24T12:16:32;25.60;70.90
29547;DHT22;40782;47.264;11.330;2023-06-24T12:18:59;25.60;68.90
29547;DHT22;40782;47.264;11.330;2023-06-24T12:21:26;25.50;67.60
29547;DHT22;40782;47.264;11.330;2023-06-24T12:23:53;25.50;67.70
29547;DHT22;40782;47.264;11.330;2023-06-24T12:26:21;25.40;71.10
29547;DHT22;40782;47.264;11.330;2023-06-24T12:28:48;25.50;71.00
29547;DHT22;40782;47.264;11.330;2023-06-24T12:31:17;25.50;70.90
29547;DHT22;40782;47.264;11.330;2023-06-24T12:33:44;25.50;67.50
29547;DHT22;40782;47.264;11.330;2023-06-24T12:36:11;25.50;69.10
29547;DHT22;40782;47.264;11.330;2023-06-24T12:38:38;25.60;68.00
29547;DHT22;40782;47.264;11.330;2023-06-24T12:41:06;25.50;68.30
29547;DHT22;40782;47.264;11.330;2023-06-24T12:43:34;25.50;68.80
29547;DHT22;40782;47.264;11.330;2023-06-24T12:46:02;25.20;66.70
29547;DHT22;40782;47.264;11.330;2023-06-24T12:48:29;25.20;67.30
29547;DHT22;40782;47.264;11.330;2023-06-24T12:50:56;25.20;68.20
29547;DHT22;40782;47.264;11.330;2023-06-24T12:53:23;25.20;67.10
29547;DHT22;40782;47.264;11.330;2023-06-24T12:55:51;25.30;69.70
29547;DHT22;40782;47.264;11.330;2023-06-24T12:58:22;25.30;67.20
29547;DHT22;40782;47.264;11.330;2023-06-24T13:00:51;25.20;67.80
29547;DHT22;40782;47.264;11.330;2023-06-24T13:03:18;25.20;68.60
29547;DHT22;40782;47.264;11.330;2023-06-24T13:05:45;25.30;67.30
29547;DHT22;40782;47.264;11.330;2023-06-24T13:08:13;25.30;69.50
29547;DHT22;40782;47.264;11.330;2023-06-24T13:10:40;25.40;67.80
29547;DHT22;40782;47.264;11.330;2023-06-24T13:13:07;25.40;68.30
29547;DHT22;40782;47.264;11.330;2023-06-24T13:15:37;25.30;69.00
29547;DHT22;40782;47.264;11.330;2023-06-24T13:18:06;25.30;67.80
29547;DHT22;40782;47.264;11.330;2023-06-24T13:20:33;25.30;68.50
29547;DHT22;40782;47.264;11.330;2023-06-24T13:23:00;25.30;68.80
29547;DHT22;40782;47.264;11.330;2023-06-24T13:25:27;25.30;66.60
29547;DHT22;40782;47.264;11.330;2023-06-24T13:27:54;25.30;67.10
29547;DHT22;40782;47.264;11.330;2023-06-24T13:30:21;25.30;69.00
29547;DHT22;40782;47.264;11.330;2023-06-24T13:32:48;25.60;69.60
29547;DHT22;40782;47.264;11.330;2023-06-24T13:35:17;25.70;68.80
29547;DHT22;40782;47.264;11.330;2023-06-24T13:37:44;25.60;70.70
29547;DHT22;40782;47.264;11.330;2023-06-24T13:40:11;25.70;68.40
29547;DHT22;40782;47.264;11.330;2023-06-24T13:42:38;25.70;70.70
29547;DHT22;40782;47.264;11.330;2023-06-24T13:45:06;25.70;67.40
29547;DHT22;40782;47.264;11.330;2023-06-24T13:47:33;25.80;66.00
29547;DHT22;40782;47.264;11.330;2023-06-24T13:50:00;25.60;68.20
29547;DHT22;40782;47.264;11.330;2023-06-24T13:52:29;25.70;67.00
29547;DHT22;40782;47.264;11.330;2023-06-24T13:54:56;26.00;65.30
29547;DHT22;40782;47.264;11.330;2023-06-24T13:57:23;26.30;69.10
29547;DHT22;40782;47.264;11.330;2023-06-24T13:59:50;26.50;71.60
29547;DHT22;40782;47.264;11.330;2023-06-24T14:02:17;26.50;69.60
29547;DHT22;40782;47.264;11.330;2023-06-24T14:04:45;26.50;70.70
29547;DHT22;40782;47.264;11.330;2023-06-24T14:07:13;26.60;67.80
29547;DHT22;40782;47.264;11.330;2023-06-24T14:09:42;26.70;71.90
29547;DHT22;40782;47.264;11.330;2023-06-24T14:12:09;26.80;68.20
29547;DHT22;40782;47.264;11.330;2023-06-24T14:14:36;26.90;66.30
29547;DHT22;40782;47.264;11.330;2023-06-24T14:17:04;27.00;67.00
29547;DHT22;40782;47.264;11.330;2023-06-24T14:19:34;26.90;68.90
29547;DHT22;40782;47.264;11.330;2023-06-24T14:22:01;26.90;68.20
29547;DHT22;40782;47.264;11.330;2023-06-24T14:24:28;26.80;69.10
29547;DHT22;40782;47.264;11.330;2023-06-24T14:26:56;26.70;67.00
29547;DHT22;40782;47.264;11.330;2023-06-24T14:29:23;26.70;67.70
29547;DHT22;40782;47.264;11.330;2023-06-24T14:31:51;26.60;66.30
29547;DHT22;40782;47.264;11.330;2023-06-24T14:34:18;26.40;66.50
29547;DHT22;40782;47.264;11.330;2023-06-24T14:36:45;26.40;67.00
29547;DHT22;40782;47.264;11.330;2023-06-24T14:39:13;26.20;65.30
29547;DHT22;40782;47.264;11.330;2023-06-24T14:41:40;26.00;67.20
29547;DHT22;40782;47.264;11.330;2023-06-24T14:44:09;26.10;68.90
29547;DHT22;40782;47.264;11.330;2023-06-24T14:46:36;26.10;68.60
29547;DHT22;40782;47.264;11.330;2023-06-24T14:49:03;26.10;67.70
29547;DHT22;40782;47.264;11.330;2023-06-24T14:51:31;26.00;65.70
29547;DHT22;40782;47.264;11.330;2023-06-24T14:53:58;25.80;65.90
29547;DHT22;40782;47.264;11.330;2023-06-24T14:56:26;25.70;66.30
29547;DHT22;40782;47.264;11.330;2023-06-24T14:58:53;25.60;65.70
29547;DHT22;40782;47.264;11.330;2023-06-24T15:01:21;25.70;66.40
29547;DHT22;40782;47.264;11.330;2023-06-24T15:03:48;25.90;67.00
29547;DHT22;40782;47.264;11.330;2023-06-24T15:06:15;26.10;66.40
29547;DHT22;40782;47.264;11.330;2023-06-24T15:08:42;26.20;65.30
29547;DHT22;40782;47.264;11.330;2023-06-24T15:11:10;26.20;65.50
29547;DHT22;40782;47.264;11.330;2023-06-24T15:13:37;26.40;66.20
29547;DHT22;40782;47.264;11.330;2023-06-24T15:16:04;26.50;64.60
29547;DHT22;40782;47.264;11.330;2023-06-24T15:18:33;26.40;64.00
29547;DHT22;40782;47.264;11.330;2023-06-24T15:21:00;26.30;64.50